sensor_id;sensor_type;location;lat;lon;timestamp;P1;durP1;ratioP1;P2;durP2;ratioP2
9675;SDS011;4876;42.656;23.292;2024-03-22T00:00:42;14.25;;;5.53;;
9675;SDS011;4876;42.656;23.292;2024-03-22T00:03:07;14.93;;;5.75;;
9675;SDS011;4876;42.656;23.292;2024-03-22T00:05:33;7.97;;;4.50;;
9675;SDS011;4876;42.656;23.292;2024-03-22T00:07:58;9.85;;;4.22;;
9675;SDS011;4876;42.656;23.292;2024-03-22T00:10:24;10.65;;;5.40;;
9675;SDS011;4876;42.656;23.292;2024-03-22T00:12:49;13.20;;;5.38;;
9675;SDS011;4876;42.656;23.292;2024-03-22T00:15:15;11.43;;;5.28;;
9675;SDS011;4876;42.656;23.292;2024-03-22T00:17:42;13.73;;;5.50;;
9675;SDS011;4876;42.656;23.292;2024-03-22T00:20:08;11.23;;;5.38;;
9675;SDS011;4876;42.656;23.292;2024-03-22T00:22:34;12.02;;;4.93;;
9675;SDS011;4876;42.656;23.292;2024-03-22T00:25:00;9.25;;;4.70;;
9675;SDS011;4876;42.656;23.292;2024-03-22T00:27:25;13.35;;;5.75;;
9675;SDS011;4876;42.656;23.292;2024-03-22T00:29:50;10.48;;;3.85;;
9675;SDS011;4876;42.656;23.292;2024-03-22T00:32:16;11.48;;;4.97;;
9675;SDS011;4876;42.656;23.292;2024-03-22T00:34:41;10.85;;;5.32;;
9675;SDS011;4876;42.656;23.292;2024-03-22T00:37:08;9.32;;;5.25;;
9675;SDS011;4876;42.656;23.292;2024-03-22T00:39:33;13.68;;;4.50;;
9675;SDS011;4876;42.656;23.292;2024-03-22T00:41:59;9.80;;;4.47;;
9675;SDS011;4876;42.656;23.292;2024-03-22T00:44:24;7.90;;;4.50;;
9675;SDS011;4876;42.656;23.292;2024-03-22T00:46:50;9.32;;;5.15;;
9675;SDS011;4876;42.656;23.292;2024-03-22T00:49:15;10.70;;;5.15;;
9675;SDS011;4876;42.656;23.292;2024-03-22T00:51:41;8.88;;;4.18;;
9675;SDS011;4876;42.656;23.292;2024-03-22T00:54:09;10.23;;;5.00;;
9675;SDS011;4876;42.656;23.292;2024-03-22T00:56:34;12.10;;;5.13;;
9675;SDS011;4876;42.656;23.292;2024-03-22T00:59:00;16.02;;;4.93;;
9675;SDS011;4876;42.656;23.292;2024-03-22T01:01:25;11.43;;;4.80;;
9675;SDS011;4876;42.656;23.292;2024-03-22T01:03:51;14.48;;;5.63;;
9675;SDS011;4876;42.656;23.292;2024-03-22T01:06:16;14.10;;;5.32;;
9675;SDS011;4876;42.656;23.292;2024-03-22T01:08:47;11.02;;;5.20;;
9675;SDS011;4876;42.656;23.292;2024-03-22T01:11:13;11.38;;;5.30;;
9675;SDS011;4876;42.656;23.292;2024-03-22T01:13:38;10.00;;;5.50;;
9675;SDS011;4876;42.656;23.292;2024-03-22T01:16:04;12.60;;;5.38;;
9675;SDS011;4876;42.656;23.292;2024-03-22T01:18:30;10.15;;;4.65;;
9675;SDS011;4876;42.656;23.292;2024-03-22T01:20:55;9.57;;;4.53;;
9675;SDS011;4876;42.656;23.292;2024-03-22T01:23:21;9.15;;;4.40;;
9675;SDS011;4876;42.656;23.292;2024-03-22T01:25:46;8.48;;;4.80;;
9675;SDS011;4876;42.656;23.292;2024-03-22T01:28:12;12.63;;;4.70;;
9675;SDS011;4876;42.656;23.292;2024-03-22T01:30:37;13.10;;;4.80;;
9675;SDS011;4876;42.656;23.292;2024-03-22T01:33:03;10.60;;;4.03;;
9675;SDS011;4876;42.656;23.292;2024-03-22T01:35:28;11.30;;;4.20;;
9675;SDS011;4876;42.656;23.292;2024-03-22T01:37:54;9.93;;;4.57;;
9675;SDS011;4876;42.656;23.292;2024-03-22T01:40:19;6.90;;;4.25;;
9675;SDS011;4876;42.656;23.292;2024-03-22T01:42:45;10.10;;;4.93;;
9675;SDS011;4876;42.656;23.292;2024-03-22T01:45:11;10.80;;;4.65;;
9675;SDS011;4876;42.656;23.292;2024-03-22T01:47:40;10.43;;;4.43;;
9675;SDS011;4876;42.656;23.292;2024-03-22T01:50:06;8.02;;;4.10;;
9675;SDS011;4876;42.656;23.292;2024-03-22T01:52:32;11.88;;;5.07;;
9675;SDS011;4876;42.656;23.292;2024-03-22T01:54:58;9.43;;;4.03;;
9675;SDS011;4876;42.656;23.292;2024-03-22T01:57:24;11.55;;;4.22;;
9675;SDS011;4876;42.656;23.292;2024-03-22T01:59:51;6.72;;;3.65;;
9675;SDS011;4876;42.656;23.292;2024-03-22T02:02:20;8.63;;;4.00;;
9675;SDS011;4876;42.656;23.292;2024-03-22T02:04:46;9.55;;;3.80;;
9675;SDS011;4876;42.656;23.292;2024-03-22T02:07:15;7.75;;;3.78;;
9675;SDS011;4876;42.656;23.292;2024-03-22T02:09:40;6.22;;;3.50;;
9675;SDS011;4876;42.656;23.292;2024-03-22T02:12:06;9.15;;;4.15;;
9675;SDS011;4876;42.656;23.292;2024-03-22T02:14:31;10.80;;;4.13;;
9675;SDS011;4876;42.656;23.292;2024-03-22T02:16:57;9.38;;;3.53;;
9675;SDS011;4876;42.656;23.292;2024-03-22T02:19:22;8.85;;;3.83;;
9675;SDS011;4876;42.656;23.292;2024-03-22T02:21:48;7.35;;;3.67;;
9675;SDS011;4876;42.656;23.292;2024-03-22T02:24:13;10.18;;;3.55;;
9675;SDS011;4876;42.656;23.292;2024-03-22T02:26:39;8.45;;;3.63;;
9675;SDS011;4876;42.656;23.292;2024-03-22T02:29:04;9.02;;;3.88;;
9675;SDS011;4876;42.656;23.292;2024-03-22T02:31:30;7.50;;;3.67;;
9675;SDS011;4876;42.656;23.292;2024-03-22T02:33:55;9.05;;;4.13;;
9675;SDS011;4876;42.656;23.292;2024-03-22T02:36:21;7.32;;;3.90;;
9675;SDS011;4876;42.656;23.292;2024-03-22T02:38:46;9.90;;;4.03;;
9675;SDS011;4876;42.656;23.292;2024-03-22T02:41:12;7.18;;;3.58;;
9675;SDS011;4876;42.656;23.292;2024-03-22T02:43:37;7.82;;;3.58;;
9675;SDS011;4876;42.656;23.292;2024-03-22T02:46:03;7.93;;;3.47;;
9675;SDS011;4876;42.656;23.292;2024-03-22T02:48:28;10.13;;;4.38;;
9675;SDS011;4876;42.656;23.292;2024-03-22T02:50:57;10.50;;;5.55;;
9675;SDS011;4876;42.656;23.292;2024-03-22T02:55:48;10.35;;;5.57;;
9675;SDS011;4876;42.656;23.292;2024-03-22T02:58:13;11.55;;;4.63;;
9675;SDS011;4876;42.656;23.292;2024-03-22T03:00:39;10.25;;;4.97;;
9675;SDS011;4876;42.656;23.292;2024-03-22T03:03:05;13.45;;;4.88;;
9675;SDS011;4876;42.656;23.292;2024-03-22T03:05:31;8.85;;;3.92;;
9675;SDS011;4876;42.656;23.292;2024-03-22T03:07:57;13.65;;;4.43;;
9675;SDS011;4876;42.656;23.292;2024-03-22T03:10:23;12.73;;;5.05;;
9675;SDS011;4876;42.656;23.292;2024-03-22T03:12:48;11.60;;;4.80;;
9675;SDS011;4876;42.656;23.292;2024-03-22T03:15:15;11.13;;;5.68;;
9675;SDS011;4876;42.656;23.292;2024-03-22T03:17:41;11.13;;;5.32;;
9675;SDS011;4876;42.656;23.292;2024-03-22T03:20:06;12.40;;;5.20;;
9675;SDS011;4876;42.656;23.292;2024-03-22T03:22:33;16.45;;;5.78;;
9675;SDS011;4876;42.656;23.292;2024-03-22T03:24:59;8.75;;;4.65;;
9675;SDS011;4876;42.656;23.292;2024-03-22T03:27:25;12.77;;;5.50;;
9675;SDS011;4876;42.656;23.292;2024-03-22T03:29:51;13.82;;;6.30;;
9675;SDS011;4876;42.656;23.292;2024-03-22T03:32:16;13.98;;;5.95;;
9675;SDS011;4876;42.656;23.292;2024-03-22T03:34:42;15.23;;;5.88;;
9675;SDS011;4876;42.656;23.292;2024-03-22T03:37:07;13.88;;;6.88;;
9675;SDS011;4876;42.656;23.292;2024-03-22T03:39:33;13.82;;;5.85;;
9675;SDS011;4876;42.656;23.292;2024-03-22T03:41:58;11.02;;;5.38;;
9675;SDS011;4876;42.656;23.292;2024-03-22T03:44:24;13.85;;;6.28;;
9675;SDS011;4876;42.656;23.292;2024-03-22T03:46:49;11.73;;;5.38;;
9675;SDS011;4876;42.656;23.292;2024-03-22T03:49:15;10.57;;;5.03;;
9675;SDS011;4876;42.656;23.292;2024-03-22T03:51:40;12.13;;;5.10;;
9675;SDS011;4876;42.656;23.292;2024-03-22T03:54:06;12.35;;;5.90;;
9675;SDS011;4876;42.656;23.292;2024-03-22T03:56:31;14.82;;;5.40;;
9675;SDS011;4876;42.656;23.292;2024-03-22T03:58:57;14.07;;;5.95;;
9675;SDS011;4876;42.656;23.292;2024-03-22T04:01:22;16.88;;;7.90;;
9675;SDS011;4876;42.656;23.292;2024-03-22T04:03:48;19.05;;;8.25;;
9675;SDS011;4876;42.656;23.292;2024-03-22T04:06:14;26.38;;;9.30;;
9675;SDS011;4876;42.656;23.292;2024-03-22T04:08:39;22.67;;;8.45;;
9675;SDS011;4876;42.656;23.292;2024-03-22T04:11:05;17.65;;;8.13;;
9675;SDS011;4876;42.656;23.292;2024-03-22T04:13:30;23.10;;;8.43;;
9675;SDS011;4876;42.656;23.292;2024-03-22T04:15:58;19.67;;;7.43;;
9675;SDS011;4876;42.656;23.292;2024-03-22T04:18:24;15.18;;;8.05;;
9675;SDS011;4876;42.656;23.292;2024-03-22T04:20:56;21.10;;;8.48;;
9675;SDS011;4876;42.656;23.292;2024-03-22T04:23:23;18.13;;;8.15;;
9675;SDS011;4876;42.656;23.292;2024-03-22T04:25:55;16.08;;;7.03;;
9675;SDS011;4876;42.656;23.292;2024-03-22T04:28:23;17.20;;;8.23;;
9675;SDS011;4876;42.656;23.292;2024-03-22T04:33:24;14.30;;;6.43;;
9675;SDS011;4876;42.656;23.292;2024-03-22T04:35:50;16.20;;;6.07;;
9675;SDS011;4876;42.656;23.292;2024-03-22T04:38:16;17.92;;;6.57;;
9675;SDS011;4876;42.656;23.292;2024-03-22T04:40:42;18.27;;;6.63;;
9675;SDS011;4876;42.656;23.292;2024-03-22T04:43:08;14.82;;;6.13;;
9675;SDS011;4876;42.656;23.292;2024-03-22T04:45:34;17.75;;;5.93;;
9675;SDS011;4876;42.656;23.292;2024-03-22T04:48:01;14.75;;;6.53;;
9675;SDS011;4876;42.656;23.292;2024-03-22T04:50:27;17.65;;;7.57;;
9675;SDS011;4876;42.656;23.292;2024-03-22T04:52:53;18.88;;;8.32;;
9675;SDS011;4876;42.656;23.292;2024-03-22T04:55:18;18.75;;;8.65;;
9675;SDS011;4876;42.656;23.292;2024-03-22T04:57:44;20.52;;;8.73;;
9675;SDS011;4876;42.656;23.292;2024-03-22T05:00:10;14.50;;;7.25;;
9675;SDS011;4876;42.656;23.292;2024-03-22T05:02:35;16.02;;;7.68;;
9675;SDS011;4876;42.656;23.292;2024-03-22T05:05:01;21.45;;;7.85;;
9675;SDS011;4876;42.656;23.292;2024-03-22T05:07:26;19.60;;;8.00;;
9675;SDS011;4876;42.656;23.292;2024-03-22T05:09:52;15.90;;;7.90;;
9675;SDS011;4876;42.656;23.292;2024-03-22T05:12:17;28.58;;;8.18;;
9675;SDS011;4876;42.656;23.292;2024-03-22T05:14:43;15.18;;;7.95;;
9675;SDS011;4876;42.656;23.292;2024-03-22T05:17:09;18.10;;;7.68;;
9675;SDS011;4876;42.656;23.292;2024-03-22T05:19:34;19.27;;;8.07;;
9675;SDS011;4876;42.656;23.292;2024-03-22T05:22:00;17.95;;;8.80;;
9675;SDS011;4876;42.656;23.292;2024-03-22T05:24:25;22.30;;;9.07;;
9675;SDS011;4876;42.656;23.292;2024-03-22T05:26:52;21.75;;;8.90;;
9675;SDS011;4876;42.656;23.292;2024-03-22T05:29:18;22.40;;;8.20;;
9675;SDS011;4876;42.656;23.292;2024-03-22T05:31:48;22.45;;;8.57;;
9675;SDS011;4876;42.656;23.292;2024-03-22T05:34:16;21.15;;;8.75;;
9675;SDS011;4876;42.656;23.292;2024-03-22T05:36:42;21.33;;;8.32;;
9675;SDS011;4876;42.656;23.292;2024-03-22T05:39:08;19.88;;;9.20;;
9675;SDS011;4876;42.656;23.292;2024-03-22T05:41:35;22.13;;;10.02;;
9675;SDS011;4876;42.656;23.292;2024-03-22T05:44:01;24.60;;;9.52;;
9675;SDS011;4876;42.656;23.292;2024-03-22T05:46:26;20.98;;;8.98;;
9675;SDS011;4876;42.656;23.292;2024-03-22T05:48:52;19.15;;;8.95;;
9675;SDS011;4876;42.656;23.292;2024-03-22T05:51:17;17.55;;;7.82;;
9675;SDS011;4876;42.656;23.292;2024-03-22T05:53:43;15.30;;;7.65;;
9675;SDS011;4876;42.656;23.292;2024-03-22T05:56:09;10.90;;;5.95;;
9675;SDS011;4876;42.656;23.292;2024-03-22T05:58:34;14.60;;;5.80;;
9675;SDS011;4876;42.656;23.292;2024-03-22T06:01:01;13.57;;;5.80;;
9675;SDS011;4876;42.656;23.292;2024-03-22T06:03:28;12.57;;;5.78;;
9675;SDS011;4876;42.656;23.292;2024-03-22T06:05:54;14.23;;;6.53;;
9675;SDS011;4876;42.656;23.292;2024-03-22T06:08:25;18.08;;;6.35;;
9675;SDS011;4876;42.656;23.292;2024-03-22T06:10:55;14.07;;;6.38;;
9675;SDS011;4876;42.656;23.292;2024-03-22T06:13:24;16.02;;;6.28;;
9675;SDS011;4876;42.656;23.292;2024-03-22T06:15:49;14.25;;;6.80;;
9675;SDS011;4876;42.656;23.292;2024-03-22T06:18:16;14.32;;;6.47;;
9675;SDS011;4876;42.656;23.292;2024-03-22T06:20:42;13.52;;;6.38;;
9675;SDS011;4876;42.656;23.292;2024-03-22T06:23:08;15.70;;;6.63;;
9675;SDS011;4876;42.656;23.292;2024-03-22T06:25:34;13.00;;;6.22;;
9675;SDS011;4876;42.656;23.292;2024-03-22T06:28:00;13.77;;;5.82;;
9675;SDS011;4876;42.656;23.292;2024-03-22T06:30:25;13.98;;;5.82;;
9675;SDS011;4876;42.656;23.292;2024-03-22T06:32:52;11.75;;;5.80;;
9675;SDS011;4876;42.656;23.292;2024-03-22T06:35:18;13.02;;;5.65;;
9675;SDS011;4876;42.656;23.292;2024-03-22T06:37:43;12.90;;;6.45;;
9675;SDS011;4876;42.656;23.292;2024-03-22T06:40:09;18.02;;;7.10;;
9675;SDS011;4876;42.656;23.292;2024-03-22T06:42:35;12.13;;;5.97;;
9675;SDS011;4876;42.656;23.292;2024-03-22T06:45:01;19.25;;;6.20;;
9675;SDS011;4876;42.656;23.292;2024-03-22T06:47:27;14.48;;;6.18;;
9675;SDS011;4876;42.656;23.292;2024-03-22T06:49:53;13.98;;;6.18;;
9675;SDS011;4876;42.656;23.292;2024-03-22T06:52:19;14.27;;;6.80;;
9675;SDS011;4876;42.656;23.292;2024-03-22T06:54:45;19.85;;;7.18;;
9675;SDS011;4876;42.656;23.292;2024-03-22T06:57:11;14.43;;;6.72;;
9675;SDS011;4876;42.656;23.292;2024-03-22T06:59:36;13.27;;;6.28;;
9675;SDS011;4876;42.656;23.292;2024-03-22T07:02:02;17.13;;;7.13;;
9675;SDS011;4876;42.656;23.292;2024-03-22T07:04:28;17.55;;;6.70;;
9675;SDS011;4876;42.656;23.292;2024-03-22T07:06:54;17.65;;;7.20;;
9675;SDS011;4876;42.656;23.292;2024-03-22T07:09:19;16.73;;;6.97;;
9675;SDS011;4876;42.656;23.292;2024-03-22T07:11:45;15.05;;;6.50;;
9675;SDS011;4876;42.656;23.292;2024-03-22T07:14:11;10.45;;;5.22;;
9675;SDS011;4876;42.656;23.292;2024-03-22T07:16:37;13.18;;;4.82;;
9675;SDS011;4876;42.656;23.292;2024-03-22T07:19:03;12.52;;;5.90;;
9675;SDS011;4876;42.656;23.292;2024-03-22T07:21:29;12.27;;;5.35;;
9675;SDS011;4876;42.656;23.292;2024-03-22T07:23:55;12.38;;;4.70;;
9675;SDS011;4876;42.656;23.292;2024-03-22T07:26:20;11.27;;;5.32;;
9675;SDS011;4876;42.656;23.292;2024-03-22T07:28:46;11.30;;;4.68;;
9675;SDS011;4876;42.656;23.292;2024-03-22T07:31:12;13.55;;;4.97;;
9675;SDS011;4876;42.656;23.292;2024-03-22T07:33:37;9.30;;;4.45;;
9675;SDS011;4876;42.656;23.292;2024-03-22T07:36:05;6.82;;;3.15;;
9675;SDS011;4876;42.656;23.292;2024-03-22T07:38:31;8.90;;;5.32;;
9675;SDS011;4876;42.656;23.292;2024-03-22T07:40:57;9.52;;;4.78;;
9675;SDS011;4876;42.656;23.292;2024-03-22T07:43:22;7.82;;;3.53;;
9675;SDS011;4876;42.656;23.292;2024-03-22T07:45:48;7.63;;;3.92;;
9675;SDS011;4876;42.656;23.292;2024-03-22T07:48:14;7.57;;;3.92;;
9675;SDS011;4876;42.656;23.292;2024-03-22T07:50:40;15.77;;;4.72;;
9675;SDS011;4876;42.656;23.292;2024-03-22T07:53:05;8.02;;;3.67;;
9675;SDS011;4876;42.656;23.292;2024-03-22T07:55:31;11.48;;;4.32;;
9675;SDS011;4876;42.656;23.292;2024-03-22T07:57:56;7.22;;;3.20;;
9675;SDS011;4876;42.656;23.292;2024-03-22T08:00:23;7.18;;;3.70;;
9675;SDS011;4876;42.656;23.292;2024-03-22T08:02:50;8.32;;;4.07;;
9675;SDS011;4876;42.656;23.292;2024-03-22T08:05:16;8.10;;;3.83;;
9675;SDS011;4876;42.656;23.292;2024-03-22T08:07:42;7.65;;;4.47;;
9675;SDS011;4876;42.656;23.292;2024-03-22T08:10:08;8.40;;;3.90;;
9675;SDS011;4876;42.656;23.292;2024-03-22T08:12:34;10.35;;;4.13;;
9675;SDS011;4876;42.656;23.292;2024-03-22T08:15:00;9.18;;;4.47;;
9675;SDS011;4876;42.656;23.292;2024-03-22T08:17:26;13.70;;;4.07;;
9675;SDS011;4876;42.656;23.292;2024-03-22T08:19:51;8.73;;;4.32;;
9675;SDS011;4876;42.656;23.292;2024-03-22T08:22:17;9.90;;;4.47;;
9675;SDS011;4876;42.656;23.292;2024-03-22T08:24:42;9.98;;;3.95;;
9675;SDS011;4876;42.656;23.292;2024-03-22T08:27:08;8.30;;;3.60;;
9675;SDS011;4876;42.656;23.292;2024-03-22T08:29:33;12.68;;;4.22;;
9675;SDS011;4876;42.656;23.292;2024-03-22T08:31:59;7.28;;;3.78;;
9675;SDS011;4876;42.656;23.292;2024-03-22T08:34:24;8.82;;;3.92;;
9675;SDS011;4876;42.656;23.292;2024-03-22T08:36:50;5.32;;;2.75;;
9675;SDS011;4876;42.656;23.292;2024-03-22T08:39:15;7.43;;;3.67;;
9675;SDS011;4876;42.656;23.292;2024-03-22T08:41:41;7.68;;;3.33;;
9675;SDS011;4876;42.656;23.292;2024-03-22T08:44:07;6.82;;;3.65;;
9675;SDS011;4876;42.656;23.292;2024-03-22T08:46:32;7.18;;;3.60;;
9675;SDS011;4876;42.656;23.292;2024-03-22T08:48:58;6.32;;;2.72;;
9675;SDS011;4876;42.656;23.292;2024-03-22T08:51:24;6.65;;;3.30;;
9675;SDS011;4876;42.656;23.292;2024-03-22T08:53:50;8.45;;;3.35;;
9675;SDS011;4876;42.656;23.292;2024-03-22T08:56:15;5.95;;;2.88;;
9675;SDS011;4876;42.656;23.292;2024-03-22T08:58:41;4.78;;;2.45;;
9675;SDS011;4876;42.656;23.292;2024-03-22T09:01:06;6.20;;;2.90;;
9675;SDS011;4876;42.656;23.292;2024-03-22T09:03:35;4.28;;;2.13;;
9675;SDS011;4876;42.656;23.292;2024-03-22T09:06:01;6.57;;;1.90;;
9675;SDS011;4876;42.656;23.292;2024-03-22T09:08:27;4.95;;;2.28;;
9675;SDS011;4876;42.656;23.292;2024-03-22T09:10:54;8.65;;;3.00;;
9675;SDS011;4876;42.656;23.292;2024-03-22T09:13:20;6.28;;;3.00;;
9675;SDS011;4876;42.656;23.292;2024-03-22T09:15:45;5.70;;;2.53;;
9675;SDS011;4876;42.656;23.292;2024-03-22T09:18:11;4.25;;;2.30;;
9675;SDS011;4876;42.656;23.292;2024-03-22T09:20:36;6.13;;;2.25;;
9675;SDS011;4876;42.656;23.292;2024-03-22T09:23:02;9.27;;;2.83;;
9675;SDS011;4876;42.656;23.292;2024-03-22T09:25:29;3.60;;;2.13;;
9675;SDS011;4876;42.656;23.292;2024-03-22T09:27:54;7.30;;;2.40;;
9675;SDS011;4876;42.656;23.292;2024-03-22T09:30:20;7.22;;;2.70;;
9675;SDS011;4876;42.656;23.292;2024-03-22T09:32:47;5.90;;;2.83;;
9675;SDS011;4876;42.656;23.292;2024-03-22T09:35:12;8.52;;;2.80;;
9675;SDS011;4876;42.656;23.292;2024-03-22T09:37:42;6.50;;;2.55;;
9675;SDS011;4876;42.656;23.292;2024-03-22T09:40:08;6.10;;;2.33;;
9675;SDS011;4876;42.656;23.292;2024-03-22T09:42:36;4.28;;;2.40;;
9675;SDS011;4876;42.656;23.292;2024-03-22T09:45:04;4.13;;;2.08;;
9675;SDS011;4876;42.656;23.292;2024-03-22T09:47:33;4.72;;;2.33;;
9675;SDS011;4876;42.656;23.292;2024-03-22T09:50:00;5.20;;;2.10;;
9675;SDS011;4876;42.656;23.292;2024-03-22T09:52:28;4.85;;;2.70;;
9675;SDS011;4876;42.656;23.292;2024-03-22T09:54:53;4.57;;;2.10;;
9675;SDS011;4876;42.656;23.292;2024-03-22T09:57:19;6.07;;;2.25;;
9675;SDS011;4876;42.656;23.292;2024-03-22T09:59:46;5.20;;;2.33;;
9675;SDS011;4876;42.656;23.292;2024-03-22T10:02:12;5.57;;;2.75;;
9675;SDS011;4876;42.656;23.292;2024-03-22T10:04:39;5.07;;;2.28;;
9675;SDS011;4876;42.656;23.292;2024-03-22T10:07:08;6.43;;;2.17;;
9675;SDS011;4876;42.656;23.292;2024-03-22T10:09:35;6.90;;;2.47;;
9675;SDS011;4876;42.656;23.292;2024-03-22T10:12:01;4.10;;;2.13;;
9675;SDS011;4876;42.656;23.292;2024-03-22T10:14:28;4.78;;;2.22;;
9675;SDS011;4876;42.656;23.292;2024-03-22T10:16:54;4.22;;;2.17;;
9675;SDS011;4876;42.656;23.292;2024-03-22T10:19:20;5.10;;;2.42;;
9675;SDS011;4876;42.656;23.292;2024-03-22T10:21:47;6.18;;;2.58;;
9675;SDS011;4876;42.656;23.292;2024-03-22T10:24:13;8.95;;;2.63;;
9675;SDS011;4876;42.656;23.292;2024-03-22T10:26:39;5.32;;;2.30;;
9675;SDS011;4876;42.656;23.292;2024-03-22T10:29:08;4.57;;;2.45;;
9675;SDS011;4876;42.656;23.292;2024-03-22T10:31:35;7.68;;;2.25;;
9675;SDS011;4876;42.656;23.292;2024-03-22T10:34:02;4.97;;;2.47;;
9675;SDS011;4876;42.656;23.292;2024-03-22T10:36:31;5.63;;;2.67;;
9675;SDS011;4876;42.656;23.292;2024-03-22T10:38:58;3.92;;;2.08;;
9675;SDS011;4876;42.656;23.292;2024-03-22T10:41:24;3.22;;;2.03;;
9675;SDS011;4876;42.656;23.292;2024-03-22T10:43:51;4.05;;;2.17;;
9675;SDS011;4876;42.656;23.292;2024-03-22T10:46:16;5.95;;;2.53;;
9675;SDS011;4876;42.656;23.292;2024-03-22T10:48:45;5.35;;;2.70;;
9675;SDS011;4876;42.656;23.292;2024-03-22T10:51:11;4.80;;;2.42;;
9675;SDS011;4876;42.656;23.292;2024-03-22T10:53:39;6.68;;;2.40;;
9675;SDS011;4876;42.656;23.292;2024-03-22T10:56:06;4.43;;;2.10;;
9675;SDS011;4876;42.656;23.292;2024-03-22T10:58:34;4.57;;;2.28;;
9675;SDS011;4876;42.656;23.292;2024-03-22T11:01:05;7.88;;;2.28;;
9675;SDS011;4876;42.656;23.292;2024-03-22T11:03:31;5.65;;;2.35;;
9675;SDS011;4876;42.656;23.292;2024-03-22T11:05:58;6.72;;;2.53;;
9675;SDS011;4876;42.656;23.292;2024-03-22T11:10:50;4.38;;;2.45;;
9675;SDS011;4876;42.656;23.292;2024-03-22T11:13:16;8.23;;;2.65;;
9675;SDS011;4876;42.656;23.292;2024-03-22T11:15:42;3.60;;;1.92;;
9675;SDS011;4876;42.656;23.292;2024-03-22T11:18:08;6.75;;;2.20;;
9675;SDS011;4876;42.656;23.292;2024-03-22T11:20:37;3.80;;;2.00;;
9675;SDS011;4876;42.656;23.292;2024-03-22T11:23:05;6.05;;;2.42;;
9675;SDS011;4876;42.656;23.292;2024-03-22T11:25:33;5.65;;;2.30;;
9675;SDS011;4876;42.656;23.292;2024-03-22T11:27:59;5.93;;;2.15;;
9675;SDS011;4876;42.656;23.292;2024-03-22T11:30:28;4.60;;;2.47;;
9675;SDS011;4876;42.656;23.292;2024-03-22T11:32:55;4.32;;;2.20;;
9675;SDS011;4876;42.656;23.292;2024-03-22T11:35:21;4.13;;;2.22;;
9675;SDS011;4876;42.656;23.292;2024-03-22T11:37:47;3.47;;;1.90;;
9675;SDS011;4876;42.656;23.292;2024-03-22T11:40:12;7.90;;;2.30;;
9675;SDS011;4876;42.656;23.292;2024-03-22T11:42:38;5.32;;;2.63;;
9675;SDS011;4876;42.656;23.292;2024-03-22T11:45:07;4.45;;;2.40;;
9675;SDS011;4876;42.656;23.292;2024-03-22T11:47:34;4.45;;;2.20;;
9675;SDS011;4876;42.656;23.292;2024-03-22T11:50:00;4.43;;;1.70;;
9675;SDS011;4876;42.656;23.292;2024-03-22T11:52:26;4.30;;;2.13;;
9675;SDS011;4876;42.656;23.292;2024-03-22T11:54:52;4.35;;;2.03;;
9675;SDS011;4876;42.656;23.292;2024-03-22T11:57:18;5.43;;;1.80;;
9675;SDS011;4876;42.656;23.292;2024-03-22T11:59:45;5.53;;;2.33;;
9675;SDS011;4876;42.656;23.292;2024-03-22T12:02:11;5.20;;;2.30;;
9675;SDS011;4876;42.656;23.292;2024-03-22T12:04:40;5.88;;;2.33;;
9675;SDS011;4876;42.656;23.292;2024-03-22T12:07:11;4.72;;;2.10;;
9675;SDS011;4876;42.656;23.292;2024-03-22T12:09:39;6.25;;;2.70;;
9675;SDS011;4876;42.656;23.292;2024-03-22T12:12:06;3.95;;;1.73;;
9675;SDS011;4876;42.656;23.292;2024-03-22T12:14:33;7.03;;;2.45;;
9675;SDS011;4876;42.656;23.292;2024-03-22T12:16:59;5.55;;;2.47;;
9675;SDS011;4876;42.656;23.292;2024-03-22T12:19:25;4.97;;;2.55;;
9675;SDS011;4876;42.656;23.292;2024-03-22T12:21:51;5.68;;;2.55;;
9675;SDS011;4876;42.656;23.292;2024-03-22T12:24:17;6.00;;;2.45;;
9675;SDS011;4876;42.656;23.292;2024-03-22T12:26:42;3.95;;;2.30;;
9675;SDS011;4876;42.656;23.292;2024-03-22T12:29:08;6.85;;;2.25;;
9675;SDS011;4876;42.656;23.292;2024-03-22T12:31:37;5.15;;;2.42;;
9675;SDS011;4876;42.656;23.292;2024-03-22T12:34:03;3.85;;;2.03;;
9675;SDS011;4876;42.656;23.292;2024-03-22T12:36:28;4.18;;;2.42;;
9675;SDS011;4876;42.656;23.292;2024-03-22T12:38:54;3.65;;;1.75;;
9675;SDS011;4876;42.656;23.292;2024-03-22T12:41:19;3.60;;;1.95;;
9675;SDS011;4876;42.656;23.292;2024-03-22T12:43:45;4.00;;;2.20;;
9675;SDS011;4876;42.656;23.292;2024-03-22T12:46:10;4.10;;;2.05;;
9675;SDS011;4876;42.656;23.292;2024-03-22T12:48:36;4.47;;;2.33;;
9675;SDS011;4876;42.656;23.292;2024-03-22T12:51:02;3.33;;;1.92;;
9675;SDS011;4876;42.656;23.292;2024-03-22T12:53:27;5.78;;;2.47;;
9675;SDS011;4876;42.656;23.292;2024-03-22T12:55:53;4.60;;;2.03;;
9675;SDS011;4876;42.656;23.292;2024-03-22T12:58:18;4.53;;;2.15;;
9675;SDS011;4876;42.656;23.292;2024-03-22T13:00:44;5.35;;;2.28;;
9675;SDS011;4876;42.656;23.292;2024-03-22T13:03:09;5.13;;;1.95;;
9675;SDS011;4876;42.656;23.292;2024-03-22T13:05:37;6.20;;;2.67;;
9675;SDS011;4876;42.656;23.292;2024-03-22T13:08:02;4.00;;;2.35;;
9675;SDS011;4876;42.656;23.292;2024-03-22T13:10:28;4.60;;;2.17;;
9675;SDS011;4876;42.656;23.292;2024-03-22T13:12:54;6.53;;;2.20;;
9675;SDS011;4876;42.656;23.292;2024-03-22T13:15:19;4.18;;;2.08;;
9675;SDS011;4876;42.656;23.292;2024-03-22T13:17:45;4.15;;;1.67;;
9675;SDS011;4876;42.656;23.292;2024-03-22T13:20:10;5.10;;;2.17;;
9675;SDS011;4876;42.656;23.292;2024-03-22T13:22:39;7.82;;;2.33;;
9675;SDS011;4876;42.656;23.292;2024-03-22T13:25:06;5.72;;;2.10;;
9675;SDS011;4876;42.656;23.292;2024-03-22T13:27:34;4.03;;;2.38;;
9675;SDS011;4876;42.656;23.292;2024-03-22T13:30:00;4.22;;;2.30;;
9675;SDS011;4876;42.656;23.292;2024-03-22T13:32:26;3.42;;;2.25;;
9675;SDS011;4876;42.656;23.292;2024-03-22T13:34:54;5.35;;;2.42;;
9675;SDS011;4876;42.656;23.292;2024-03-22T13:37:19;5.07;;;2.30;;
9675;SDS011;4876;42.656;23.292;2024-03-22T13:39:48;4.18;;;2.05;;
9675;SDS011;4876;42.656;23.292;2024-03-22T13:42:14;4.40;;;2.00;;
9675;SDS011;4876;42.656;23.292;2024-03-22T13:44:41;5.70;;;2.40;;
9675;SDS011;4876;42.656;23.292;2024-03-22T13:47:06;3.90;;;2.35;;
9675;SDS011;4876;42.656;23.292;2024-03-22T13:49:32;5.72;;;2.60;;
9675;SDS011;4876;42.656;23.292;2024-03-22T13:51:58;4.03;;;2.25;;
9675;SDS011;4876;42.656;23.292;2024-03-22T13:54:24;5.70;;;2.55;;
9675;SDS011;4876;42.656;23.292;2024-03-22T13:56:50;6.97;;;2.55;;
9675;SDS011;4876;42.656;23.292;2024-03-22T13:59:16;4.78;;;2.20;;
9675;SDS011;4876;42.656;23.292;2024-03-22T14:01:41;4.95;;;2.40;;
9675;SDS011;4876;42.656;23.292;2024-03-22T14:04:11;3.65;;;2.00;;
9675;SDS011;4876;42.656;23.292;2024-03-22T14:06:37;4.90;;;2.45;;
9675;SDS011;4876;42.656;23.292;2024-03-22T14:09:03;6.93;;;2.20;;
9675;SDS011;4876;42.656;23.292;2024-03-22T14:11:30;6.55;;;2.38;;
9675;SDS011;4876;42.656;23.292;2024-03-22T14:13:56;6.03;;;2.95;;
9675;SDS011;4876;42.656;23.292;2024-03-22T14:16:22;5.00;;;2.20;;
9675;SDS011;4876;42.656;23.292;2024-03-22T14:18:48;4.43;;;2.50;;
9675;SDS011;4876;42.656;23.292;2024-03-22T14:21:14;6.90;;;3.00;;
9675;SDS011;4876;42.656;23.292;2024-03-22T14:23:47;6.65;;;2.33;;
9675;SDS011;4876;42.656;23.292;2024-03-22T14:26:14;3.80;;;2.22;;
9675;SDS011;4876;42.656;23.292;2024-03-22T14:28:41;5.65;;;2.22;;
9675;SDS011;4876;42.656;23.292;2024-03-22T14:31:07;4.60;;;2.40;;
9675;SDS011;4876;42.656;23.292;2024-03-22T14:33:35;5.18;;;2.40;;
9675;SDS011;4876;42.656;23.292;2024-03-22T14:36:02;6.25;;;2.50;;
9675;SDS011;4876;42.656;23.292;2024-03-22T14:38:29;5.03;;;2.72;;
9675;SDS011;4876;42.656;23.292;2024-03-22T14:40:54;4.38;;;2.35;;
9675;SDS011;4876;42.656;23.292;2024-03-22T14:43:21;5.25;;;2.40;;
9675;SDS011;4876;42.656;23.292;2024-03-22T14:45:48;4.88;;;2.15;;
9675;SDS011;4876;42.656;23.292;2024-03-22T14:48:13;4.80;;;2.60;;
9675;SDS011;4876;42.656;23.292;2024-03-22T14:50:40;6.90;;;2.78;;
9675;SDS011;4876;42.656;23.292;2024-03-22T14:53:05;4.10;;;2.45;;
9675;SDS011;4876;42.656;23.292;2024-03-22T14:55:31;6.15;;;2.38;;